createdAt,value
2018-12-12T00:01:06.214Z,3.20
2018-12-12T00:06:08.619Z,3.20
2018-12-12T00:11:11.094Z,3.20
2018-12-12T00:16:13.519Z,3.20
2018-12-12T00:21:15.941Z,3.20
2018-12-12T00:26:18.331Z,3.20
2018-12-12T00:31:20.758Z,3.20
2018-12-12T00:36:24.146Z,3.20
2018-12-12T00:41:26.593Z,3.20
2018-12-12T00:46:29.216Z,3.20
2018-12-12T00:51:31.944Z,3.20
2018-12-12T00:56:34.423Z,3.20
2018-12-12T01:01:36.873Z,3.20
2018-12-12T01:06:39.338Z,3.20
2018-12-12T01:11:47.290Z,3.20
2018-12-12T01:16:49.708Z,3.20
2018-12-12T01:21:52.115Z,3.20
2018-12-12T01:26:54.519Z,3.10
2018-12-12T01:31:56.958Z,3.10
2018-12-12T01:36:59.403Z,3.10
2018-12-12T01:42:01.798Z,3.10
2018-12-12T01:47:04.306Z,3.10
2018-12-12T01:52:06.710Z,3.10
2018-12-12T01:57:09.122Z,3.10
2018-12-12T02:02:11.526Z,3.10
2018-12-12T02:07:13.966Z,3.10
2018-12-12T02:12:16.399Z,3.10
2018-12-12T02:17:18.800Z,3.10
2018-12-12T02:22:21.274Z,3.10
2018-12-12T02:27:23.674Z,3.10
2018-12-12T02:32:26.091Z,3.10
2018-12-12T02:37:28.602Z,3.10
2018-12-12T02:42:31.006Z,3.10
2018-12-12T02:47:33.498Z,3.10
2018-12-12T02:52:35.907Z,3.10
2018-12-12T02:57:38.307Z,3.10
2018-12-12T03:02:42.542Z,3.10
2018-12-12T03:07:44.957Z,3.10
2018-12-12T03:12:47.351Z,3.00
2018-12-12T03:17:49.783Z,3.10
2018-12-12T03:22:52.192Z,3.10
2018-12-12T03:27:54.745Z,3.10
2018-12-12T03:32:57.221Z,3.10
2018-12-12T03:37:59.632Z,3.10
2018-12-12T03:43:02.171Z,3.10
2018-12-12T03:48:04.591Z,3.10
2018-12-12T03:53:06.995Z,3.10
2018-12-12T03:58:09.416Z,3.10
2018-12-12T04:03:11.807Z,3.10
2018-12-12T04:08:14.346Z,3.00
2018-12-12T04:13:16.830Z,3.10
2018-12-12T04:18:19.283Z,3.00
2018-12-12T04:23:21.686Z,3.00
2018-12-12T04:28:24.191Z,3.00
2018-12-12T04:33:26.771Z,3.00
2018-12-12T04:38:29.188Z,3.00
2018-12-12T04:43:31.609Z,3.00
2018-12-12T04:48:34.023Z,3.00
2018-12-12T04:53:36.435Z,3.00
2018-12-12T04:58:38.850Z,3.00
2018-12-12T05:03:41.262Z,3.00
2018-12-12T05:08:43.682Z,3.00
2018-12-12T05:13:46.159Z,3.00
2018-12-12T05:18:48.550Z,3.00
2018-12-12T05:23:50.997Z,3.00
2018-12-12T05:28:53.511Z,3.00
2018-12-12T05:33:55.992Z,3.00
2018-12-12T05:38:58.472Z,3.00
2018-12-12T05:44:00.954Z,3.00
2018-12-12T05:49:03.464Z,3.00
2018-12-12T05:54:06.411Z,3.00
2018-12-12T05:59:08.810Z,3.00
2018-12-12T06:04:11.223Z,3.00
2018-12-12T06:09:13.707Z,3.00
2018-12-12T06:14:16.115Z,3.00
2018-12-12T06:19:18.564Z,3.00
2018-12-12T06:24:20.981Z,3.00
2018-12-12T06:29:23.404Z,3.00
2018-12-12T06:34:25.806Z,3.00
2018-12-12T06:39:28.544Z,3.00
2018-12-12T06:44:31.031Z,3.00
2018-12-12T06:49:33.440Z,3.00
2018-12-12T06:54:35.874Z,3.00
2018-12-12T06:59:38.328Z,3.00
2018-12-12T07:04:40.742Z,3.00
2018-12-12T07:09:43.189Z,3.00
2018-12-12T07:14:45.610Z,3.00
2018-12-12T07:19:48.102Z,3.00
2018-12-12T07:24:50.575Z,3.00
2018-12-12T07:29:53.046Z,3.00
2018-12-12T07:34:55.443Z,3.00
2018-12-12T07:39:57.857Z,3.00
2018-12-12T07:45:00.363Z,3.00
2018-12-12T07:50:03.422Z,3.10
2018-12-12T07:55:05.866Z,3.10
2018-12-12T08:00:08.649Z,3.10
2018-12-12T08:05:11.118Z,3.10
2018-12-12T08:10:13.598Z,3.10
2018-12-12T08:15:16.040Z,3.10
2018-12-12T08:20:18.522Z,3.10
2018-12-12T08:25:21.061Z,3.10
2018-12-12T08:30:23.458Z,3.10
2018-12-12T08:35:25.897Z,3.10
2018-12-12T08:40:28.308Z,3.10
2018-12-12T08:45:30.787Z,3.10
2018-12-12T08:50:33.243Z,3.10
2018-12-12T08:55:35.726Z,3.10
2018-12-12T09:00:38.178Z,3.10
2018-12-12T09:05:40.735Z,3.20
2018-12-12T09:10:43.150Z,3.20
2018-12-12T09:15:45.572Z,3.20
2018-12-12T09:20:48.111Z,3.20
2018-12-12T09:25:50.599Z,3.20
2018-12-12T09:30:53.002Z,3.20
2018-12-12T09:35:56.354Z,3.30
2018-12-12T09:40:58.879Z,3.30
2018-12-12T09:46:01.331Z,3.30
2018-12-12T09:51:07.379Z,3.30
2018-12-12T09:56:08.190Z,3.40
2018-12-12T10:01:10.626Z,3.40
2018-12-12T10:06:13.036Z,3.40
2018-12-12T10:11:15.444Z,3.40
2018-12-12T10:16:18.945Z,3.50
2018-12-12T10:21:21.498Z,3.50
2018-12-12T10:26:23.964Z,3.50
2018-12-12T10:31:26.360Z,3.60
2018-12-12T10:36:28.762Z,3.60
2018-12-12T10:41:31.172Z,3.60
2018-12-12T10:46:33.667Z,3.60
2018-12-12T10:51:36.116Z,3.70
2018-12-12T10:56:38.510Z,3.70
2018-12-12T11:01:46.819Z,3.70
2018-12-12T11:06:49.259Z,3.70
2018-12-12T11:11:51.671Z,3.70
2018-12-12T11:16:54.078Z,3.70
2018-12-12T11:21:56.485Z,3.80
2018-12-12T11:26:58.912Z,3.80
2018-12-12T11:32:01.443Z,3.80
2018-12-12T11:37:03.962Z,3.80
2018-12-12T11:42:06.358Z,3.80
2018-12-12T11:47:08.881Z,3.80
2018-12-12T11:52:11.276Z,3.80
2018-12-12T11:57:14.090Z,3.80
2018-12-12T12:02:16.538Z,3.70
2018-12-12T12:07:18.944Z,3.70
2018-12-12T12:12:21.362Z,3.70
2018-12-12T12:17:23.802Z,3.70
2018-12-12T12:22:26.275Z,3.70
2018-12-12T12:27:28.687Z,3.70
2018-12-12T12:32:31.090Z,3.70
2018-12-12T12:37:33.498Z,3.70
2018-12-12T12:42:35.954Z,3.70
2018-12-12T12:47:38.373Z,3.70
2018-12-12T12:52:40.904Z,3.70
2018-12-12T12:57:43.310Z,3.70
2018-12-12T13:02:45.794Z,3.70
2018-12-12T13:07:48.219Z,3.70
2018-12-12T13:12:50.881Z,3.70
2018-12-12T13:17:53.266Z,3.70
2018-12-12T13:22:55.704Z,3.70
2018-12-12T13:27:58.179Z,3.70
2018-12-12T13:33:00.595Z,3.80
2018-12-12T13:38:03.181Z,3.80
2018-12-12T13:43:05.613Z,3.80
2018-12-12T13:48:08.118Z,3.80
2018-12-12T13:53:11.154Z,3.80
2018-12-12T13:58:13.564Z,3.80
2018-12-12T14:03:16.001Z,3.80
2018-12-12T14:08:18.482Z,3.80
2018-12-12T14:13:20.896Z,3.80
2018-12-12T14:18:23.375Z,3.80
2018-12-12T14:23:25.783Z,3.80
2018-12-12T14:28:28.226Z,3.90
2018-12-12T14:33:30.627Z,3.80
2018-12-12T14:38:33.044Z,3.90
2018-12-12T14:43:35.522Z,3.80
2018-12-12T14:48:37.978Z,3.80
2018-12-12T14:53:41.255Z,3.80
2018-12-12T14:58:43.754Z,3.80
2018-12-12T15:03:46.187Z,3.80
2018-12-12T15:08:48.601Z,3.80
2018-12-12T15:13:51.015Z,3.80
2018-12-12T15:18:53.414Z,3.80
2018-12-12T15:23:55.824Z,3.80
2018-12-12T15:28:58.285Z,3.70
2018-12-12T15:34:00.685Z,3.70
2018-12-12T15:39:05.791Z,3.70
2018-12-12T15:44:08.286Z,3.70
2018-12-12T15:49:10.695Z,3.60
2018-12-12T15:54:13.137Z,3.70
2018-12-12T15:59:15.559Z,3.60
2018-12-12T16:04:17.980Z,3.60
2018-12-12T16:09:20.391Z,3.50
2018-12-12T16:14:22.919Z,3.50
2018-12-12T16:19:25.326Z,3.50
2018-12-12T16:24:27.763Z,3.40
2018-12-12T16:29:30.256Z,3.40
2018-12-12T16:34:32.715Z,3.40
2018-12-12T16:39:35.111Z,3.40
2018-12-12T16:44:37.624Z,3.30
2018-12-12T16:49:40.158Z,3.30
2018-12-12T16:54:42.655Z,3.20
2018-12-12T16:59:45.175Z,3.20
2018-12-12T17:04:47.585Z,3.20
2018-12-12T17:09:50.147Z,3.20
2018-12-12T17:14:52.555Z,3.10
2018-12-12T17:19:54.966Z,3.10
2018-12-12T17:24:57.939Z,3.10
2018-12-12T17:30:00.411Z,3.10
2018-12-12T17:35:08.794Z,3.10
2018-12-12T17:40:07.807Z,3.10
2018-12-12T17:45:10.222Z,3.10
2018-12-12T17:50:12.658Z,3.10
2018-12-12T17:55:15.091Z,3.10
2018-12-12T18:00:17.666Z,3.00
2018-12-12T18:05:20.127Z,3.10
2018-12-12T18:10:22.648Z,3.00
2018-12-12T18:15:25.080Z,3.00
2018-12-12T18:20:27.592Z,3.00
2018-12-12T18:25:30.022Z,3.00
2018-12-12T18:30:32.545Z,3.00
2018-12-12T18:35:35.044Z,3.00
2018-12-12T18:40:37.454Z,3.00
2018-12-12T18:45:39.940Z,2.90
2018-12-12T18:50:43.314Z,2.90
2018-12-12T18:55:45.722Z,2.80
2018-12-12T19:00:48.166Z,2.80
2018-12-12T19:05:50.678Z,2.80
2018-12-12T19:10:53.149Z,2.70
2018-12-12T19:15:55.559Z,2.70
2018-12-12T19:21:00.261Z,2.70
2018-12-12T19:26:02.404Z,2.60
2018-12-12T19:31:04.813Z,2.60
2018-12-12T19:36:07.326Z,2.50
2018-12-12T19:41:09.722Z,2.50
2018-12-12T19:46:12.207Z,2.50
2018-12-12T19:51:14.614Z,2.40
2018-12-12T19:56:17.010Z,2.40
2018-12-12T20:01:19.455Z,2.30
2018-12-12T20:06:21.915Z,2.30
2018-12-12T20:11:25.639Z,2.20
2018-12-12T20:16:28.046Z,2.20
2018-12-12T20:21:30.563Z,2.20
2018-12-12T20:26:32.995Z,2.10
2018-12-12T20:31:35.452Z,2.10
2018-12-12T20:36:37.892Z,2.10
2018-12-12T20:41:40.321Z,2.10
2018-12-12T20:46:42.760Z,2.00
2018-12-12T20:51:45.239Z,2.00
2018-12-12T20:56:47.708Z,2.00
2018-12-12T21:01:50.158Z,2.00
2018-12-12T21:06:52.584Z,2.00
2018-12-12T21:11:55.057Z,2.00
2018-12-12T21:16:57.442Z,2.00
2018-12-12T21:21:59.883Z,1.90
2018-12-12T21:27:02.289Z,1.90
2018-12-12T21:32:04.734Z,1.90
2018-12-12T21:37:07.147Z,1.90
2018-12-12T21:42:10.359Z,1.90
2018-12-12T21:47:12.772Z,1.90
2018-12-12T21:52:15.780Z,1.80
2018-12-12T21:57:18.287Z,1.80
2018-12-12T22:02:20.703Z,1.80
2018-12-12T22:07:23.122Z,1.80
2018-12-12T22:12:25.561Z,1.80
2018-12-12T22:17:28.010Z,1.70
2018-12-12T22:22:30.494Z,1.70
2018-12-12T22:27:33.734Z,1.70
2018-12-12T22:32:36.136Z,1.70
2018-12-12T22:37:38.714Z,1.70
2018-12-12T22:42:41.128Z,1.70
2018-12-12T22:47:43.712Z,1.70
2018-12-12T22:52:46.095Z,1.70
2018-12-12T22:57:48.546Z,1.70
2018-12-12T23:02:50.998Z,1.70
2018-12-12T23:07:53.446Z,1.60
2018-12-12T23:12:55.888Z,1.70
2018-12-12T23:17:58.287Z,1.60
2018-12-12T23:23:00.771Z,1.60
2018-12-12T23:28:03.242Z,1.60
2018-12-12T23:33:05.646Z,1.60
2018-12-12T23:38:08.079Z,1.60
2018-12-12T23:43:10.489Z,1.60
2018-12-12T23:48:12.895Z,1.60
2018-12-12T23:53:15.464Z,1.60
2018-12-12T23:58:17.990Z,1.60
